Airport details for: LGNX (Greece)

Metar

LGNX 261550Z 35005KT CAVOK 19/09 Q1018

General details

ICAO: LGNX
IATA: JNX
Name (city): Naxos
Major:
Country: Greece
vACC: Hellenic vACC
Description:

Naxos Island National Airport is an airport in Naxos, Greece (IATA: JNX, ICAO: LGNX). It is located near Agios Prokopios, 3 km from Naxos City.

Scenery links:
FS9 scenery:
FSX/P3D scenery: Download
XP scenery:
Elevation: 11 ft.
Transition altitude: 0 ft.
MSA: 2900 ft.
Latitude: 37.081111
Longitude: 25.368056
LGNX Charts
LGNX Notams
LGNX Online stations

Runways

Number Course Length Elevation Lat Lon ILS ILS freq ILS FAC GP
18 177° 2953ft / 900 m 11ft 37.084375 25.368197 - - 3.0°
36 357° 2953ft / 900 m 11ft 37.077133 25.368039 - - 3.0°